sensor_id;sensor_type;location;lat;lon;timestamp;P1;durP1;ratioP1;P2;durP2;ratioP2
20061;SDS011;10191;42.710;23.310;2022-08-21T00:01:43;0.00;;;0.00;;
20061;SDS011;10191;42.710;23.310;2022-08-21T00:04:10;0.00;;;0.00;;
20061;SDS011;10191;42.710;23.310;2022-08-21T00:06:37;0.00;;;0.00;;
20061;SDS011;10191;42.710;23.310;2022-08-21T00:09:03;0.00;;;0.00;;
20061;SDS011;10191;42.710;23.310;2022-08-21T00:11:30;0.00;;;0.00;;
20061;SDS011;10191;42.710;23.310;2022-08-21T00:13:56;0.00;;;0.00;;
20061;SDS011;10191;42.710;23.310;2022-08-21T00:16:21;0.00;;;0.00;;
20061;SDS011;10191;42.710;23.310;2022-08-21T00:18:47;0.00;;;0.00;;
20061;SDS011;10191;42.710;23.310;2022-08-21T00:21:14;0.00;;;0.00;;
20061;SDS011;10191;42.710;23.310;2022-08-21T00:23:40;0.00;;;0.00;;
20061;SDS011;10191;42.710;23.310;2022-08-21T00:26:06;0.00;;;0.00;;
20061;SDS011;10191;42.710;23.310;2022-08-21T00:28:32;0.00;;;0.00;;
20061;SDS011;10191;42.710;23.310;2022-08-21T00:30:58;0.07;;;0.07;;
20061;SDS011;10191;42.710;23.310;2022-08-21T00:33:25;0.00;;;0.00;;
20061;SDS011;10191;42.710;23.310;2022-08-21T00:35:51;0.00;;;0.00;;
20061;SDS011;10191;42.710;23.310;2022-08-21T00:38:17;0.00;;;0.00;;
20061;SDS011;10191;42.710;23.310;2022-08-21T00:40:59;0.00;;;0.00;;
20061;SDS011;10191;42.710;23.310;2022-08-21T00:43:28;0.00;;;0.00;;
20061;SDS011;10191;42.710;23.310;2022-08-21T00:45:57;0.00;;;0.00;;
20061;SDS011;10191;42.710;23.310;2022-08-21T00:48:23;0.00;;;0.00;;
20061;SDS011;10191;42.710;23.310;2022-08-21T00:51:24;0.10;;;0.10;;
20061;SDS011;10191;42.710;23.310;2022-08-21T00:53:51;0.00;;;0.00;;
20061;SDS011;10191;42.710;23.310;2022-08-21T00:56:20;0.05;;;0.05;;
20061;SDS011;10191;42.710;23.310;2022-08-21T00:58:48;0.10;;;0.10;;
20061;SDS011;10191;42.710;23.310;2022-08-21T01:01:14;0.00;;;0.00;;
20061;SDS011;10191;42.710;23.310;2022-08-21T01:03:40;0.40;;;0.10;;
20061;SDS011;10191;42.710;23.310;2022-08-21T01:06:06;0.10;;;0.10;;
20061;SDS011;10191;42.710;23.310;2022-08-21T01:08:33;0.10;;;0.10;;
20061;SDS011;10191;42.710;23.310;2022-08-21T01:11:00;0.13;;;0.13;;
20061;SDS011;10191;42.710;23.310;2022-08-21T01:13:27;0.10;;;0.10;;
20061;SDS011;10191;42.710;23.310;2022-08-21T01:15:56;0.00;;;0.00;;
20061;SDS011;10191;42.710;23.310;2022-08-21T01:18:24;0.10;;;0.10;;
20061;SDS011;10191;42.710;23.310;2022-08-21T01:21:13;0.00;;;0.00;;
20061;SDS011;10191;42.710;23.310;2022-08-21T01:23:42;0.00;;;0.00;;
20061;SDS011;10191;42.710;23.310;2022-08-21T01:26:11;0.00;;;0.00;;
20061;SDS011;10191;42.710;23.310;2022-08-21T01:28:40;0.10;;;0.10;;
20061;SDS011;10191;42.710;23.310;2022-08-21T01:31:10;0.03;;;0.03;;
20061;SDS011;10191;42.710;23.310;2022-08-21T01:33:38;0.00;;;0.00;;
20061;SDS011;10191;42.710;23.310;2022-08-21T01:36:04;0.10;;;0.10;;
20061;SDS011;10191;42.710;23.310;2022-08-21T01:38:30;0.00;;;0.00;;
20061;SDS011;10191;42.710;23.310;2022-08-21T01:40:56;0.00;;;0.00;;
20061;SDS011;10191;42.710;23.310;2022-08-21T01:43:21;0.00;;;0.00;;
20061;SDS011;10191;42.710;23.310;2022-08-21T01:45:47;0.00;;;0.00;;
20061;SDS011;10191;42.710;23.310;2022-08-21T01:48:12;0.00;;;0.00;;
20061;SDS011;10191;42.710;23.310;2022-08-21T01:50:38;0.10;;;0.10;;
20061;SDS011;10191;42.710;23.310;2022-08-21T01:53:03;0.00;;;0.00;;
20061;SDS011;10191;42.710;23.310;2022-08-21T01:55:29;0.00;;;0.00;;
20061;SDS011;10191;42.710;23.310;2022-08-21T01:57:56;0.00;;;0.00;;
20061;SDS011;10191;42.710;23.310;2022-08-21T02:00:22;0.00;;;0.00;;
20061;SDS011;10191;42.710;23.310;2022-08-21T02:02:49;0.10;;;0.10;;
20061;SDS011;10191;42.710;23.310;2022-08-21T02:05:15;0.00;;;0.00;;
20061;SDS011;10191;42.710;23.310;2022-08-21T02:07:45;0.00;;;0.00;;
20061;SDS011;10191;42.710;23.310;2022-08-21T02:10:14;0.00;;;0.00;;
20061;SDS011;10191;42.710;23.310;2022-08-21T02:12:42;0.00;;;0.00;;
20061;SDS011;10191;42.710;23.310;2022-08-21T02:15:08;0.00;;;0.00;;
20061;SDS011;10191;42.710;23.310;2022-08-21T02:17:47;0.00;;;0.00;;
20061;SDS011;10191;42.710;23.310;2022-08-21T02:20:20;0.00;;;0.00;;
20061;SDS011;10191;42.710;23.310;2022-08-21T02:22:51;0.00;;;0.00;;
20061;SDS011;10191;42.710;23.310;2022-08-21T02:25:17;0.10;;;0.10;;
20061;SDS011;10191;42.710;23.310;2022-08-21T02:27:45;0.00;;;0.00;;
20061;SDS011;10191;42.710;23.310;2022-08-21T02:30:16;0.00;;;0.00;;
20061;SDS011;10191;42.710;23.310;2022-08-21T02:32:44;0.00;;;0.00;;
20061;SDS011;10191;42.710;23.310;2022-08-21T02:35:10;0.00;;;0.00;;
20061;SDS011;10191;42.710;23.310;2022-08-21T02:37:47;0.00;;;0.00;;
20061;SDS011;10191;42.710;23.310;2022-08-21T02:40:15;0.10;;;0.10;;
20061;SDS011;10191;42.710;23.310;2022-08-21T02:42:42;0.00;;;0.00;;
20061;SDS011;10191;42.710;23.310;2022-08-21T02:45:08;0.00;;;0.00;;
20061;SDS011;10191;42.710;23.310;2022-08-21T02:47:34;0.10;;;0.10;;
20061;SDS011;10191;42.710;23.310;2022-08-21T02:50:00;0.10;;;0.10;;
20061;SDS011;10191;42.710;23.310;2022-08-21T02:52:26;0.10;;;0.10;;
20061;SDS011;10191;42.710;23.310;2022-08-21T02:54:52;0.00;;;0.00;;
20061;SDS011;10191;42.710;23.310;2022-08-21T02:57:17;0.00;;;0.00;;
20061;SDS011;10191;42.710;23.310;2022-08-21T02:59:42;0.00;;;0.00;;
20061;SDS011;10191;42.710;23.310;2022-08-21T03:02:08;0.00;;;0.00;;
20061;SDS011;10191;42.710;23.310;2022-08-21T03:04:36;0.10;;;0.10;;
20061;SDS011;10191;42.710;23.310;2022-08-21T03:07:02;0.00;;;0.00;;
20061;SDS011;10191;42.710;23.310;2022-08-21T03:09:28;0.00;;;0.00;;
20061;SDS011;10191;42.710;23.310;2022-08-21T03:11:53;0.00;;;0.00;;
20061;SDS011;10191;42.710;23.310;2022-08-21T03:14:19;0.10;;;0.10;;
20061;SDS011;10191;42.710;23.310;2022-08-21T03:16:45;0.00;;;0.00;;
20061;SDS011;10191;42.710;23.310;2022-08-21T03:19:11;0.00;;;0.00;;
20061;SDS011;10191;42.710;23.310;2022-08-21T03:21:36;0.00;;;0.00;;
20061;SDS011;10191;42.710;23.310;2022-08-21T03:24:02;0.40;;;0.20;;
20061;SDS011;10191;42.710;23.310;2022-08-21T03:26:29;0.10;;;0.10;;
20061;SDS011;10191;42.710;23.310;2022-08-21T03:28:54;0.00;;;0.00;;
20061;SDS011;10191;42.710;23.310;2022-08-21T03:31:20;0.00;;;0.00;;
20061;SDS011;10191;42.710;23.310;2022-08-21T03:33:46;0.00;;;0.00;;
20061;SDS011;10191;42.710;23.310;2022-08-21T03:36:12;0.03;;;0.03;;
20061;SDS011;10191;42.710;23.310;2022-08-21T03:38:38;0.10;;;0.10;;
20061;SDS011;10191;42.710;23.310;2022-08-21T03:41:04;0.00;;;0.00;;
20061;SDS011;10191;42.710;23.310;2022-08-21T03:43:30;0.00;;;0.00;;
20061;SDS011;10191;42.710;23.310;2022-08-21T03:45:56;0.08;;;0.08;;
20061;SDS011;10191;42.710;23.310;2022-08-21T03:48:22;0.00;;;0.00;;
20061;SDS011;10191;42.710;23.310;2022-08-21T03:50:47;0.00;;;0.00;;
20061;SDS011;10191;42.710;23.310;2022-08-21T03:53:16;0.00;;;0.00;;
20061;SDS011;10191;42.710;23.310;2022-08-21T03:55:42;0.10;;;0.10;;
20061;SDS011;10191;42.710;23.310;2022-08-21T03:58:12;0.00;;;0.00;;
20061;SDS011;10191;42.710;23.310;2022-08-21T04:00:42;0.00;;;0.00;;
20061;SDS011;10191;42.710;23.310;2022-08-21T04:03:08;0.00;;;0.00;;
20061;SDS011;10191;42.710;23.310;2022-08-21T04:05:34;0.10;;;0.10;;
20061;SDS011;10191;42.710;23.310;2022-08-21T04:08:02;0.07;;;0.07;;
20061;SDS011;10191;42.710;23.310;2022-08-21T04:10:30;0.00;;;0.00;;
20061;SDS011;10191;42.710;23.310;2022-08-21T04:12:57;0.80;;;0.30;;
20061;SDS011;10191;42.710;23.310;2022-08-21T04:15:24;0.00;;;0.00;;
20061;SDS011;10191;42.710;23.310;2022-08-21T04:17:50;0.40;;;0.40;;
20061;SDS011;10191;42.710;23.310;2022-08-21T04:20:16;0.20;;;0.20;;
20061;SDS011;10191;42.710;23.310;2022-08-21T04:22:43;0.50;;;0.28;;
20061;SDS011;10191;42.710;23.310;2022-08-21T04:25:09;0.20;;;0.20;;
20061;SDS011;10191;42.710;23.310;2022-08-21T04:27:35;0.10;;;0.10;;
20061;SDS011;10191;42.710;23.310;2022-08-21T04:30:01;0.10;;;0.10;;
20061;SDS011;10191;42.710;23.310;2022-08-21T04:32:28;0.00;;;0.00;;
20061;SDS011;10191;42.710;23.310;2022-08-21T04:37:19;0.00;;;0.00;;
20061;SDS011;10191;42.710;23.310;2022-08-21T04:39:44;0.00;;;0.00;;
20061;SDS011;10191;42.710;23.310;2022-08-21T04:42:10;0.00;;;0.00;;
20061;SDS011;10191;42.710;23.310;2022-08-21T04:44:35;0.00;;;0.00;;
20061;SDS011;10191;42.710;23.310;2022-08-21T04:47:01;0.00;;;0.00;;
20061;SDS011;10191;42.710;23.310;2022-08-21T04:49:26;0.22;;;0.20;;
20061;SDS011;10191;42.710;23.310;2022-08-21T04:52:01;0.20;;;0.20;;
20061;SDS011;10191;42.710;23.310;2022-08-21T04:54:27;1.10;;;0.28;;
20061;SDS011;10191;42.710;23.310;2022-08-21T04:56:58;0.20;;;0.20;;
20061;SDS011;10191;42.710;23.310;2022-08-21T04:59:32;0.00;;;0.00;;
20061;SDS011;10191;42.710;23.310;2022-08-21T05:02:01;0.20;;;0.13;;
20061;SDS011;10191;42.710;23.310;2022-08-21T05:04:28;0.00;;;0.00;;
20061;SDS011;10191;42.710;23.310;2022-08-21T05:06:56;0.00;;;0.00;;
20061;SDS011;10191;42.710;23.310;2022-08-21T05:09:25;0.10;;;0.10;;
20061;SDS011;10191;42.710;23.310;2022-08-21T05:11:51;0.00;;;0.00;;
20061;SDS011;10191;42.710;23.310;2022-08-21T05:14:17;0.08;;;0.08;;
20061;SDS011;10191;42.710;23.310;2022-08-21T05:16:44;0.10;;;0.10;;
20061;SDS011;10191;42.710;23.310;2022-08-21T05:19:10;0.10;;;0.10;;
20061;SDS011;10191;42.710;23.310;2022-08-21T05:21:38;0.10;;;0.10;;
20061;SDS011;10191;42.710;23.310;2022-08-21T05:24:05;0.08;;;0.08;;
20061;SDS011;10191;42.710;23.310;2022-08-21T05:26:31;0.00;;;0.00;;
20061;SDS011;10191;42.710;23.310;2022-08-21T05:28:57;0.00;;;0.00;;
20061;SDS011;10191;42.710;23.310;2022-08-21T05:31:23;0.00;;;0.00;;
20061;SDS011;10191;42.710;23.310;2022-08-21T05:33:49;0.52;;;0.20;;
20061;SDS011;10191;42.710;23.310;2022-08-21T05:36:14;0.00;;;0.00;;
20061;SDS011;10191;42.710;23.310;2022-08-21T05:38:40;0.30;;;0.30;;
20061;SDS011;10191;42.710;23.310;2022-08-21T05:41:05;0.10;;;0.10;;
20061;SDS011;10191;42.710;23.310;2022-08-21T05:43:32;0.00;;;0.00;;
20061;SDS011;10191;42.710;23.310;2022-08-21T05:46:01;0.00;;;0.00;;
20061;SDS011;10191;42.710;23.310;2022-08-21T05:48:27;0.00;;;0.00;;
20061;SDS011;10191;42.710;23.310;2022-08-21T05:50:53;0.10;;;0.10;;
20061;SDS011;10191;42.710;23.310;2022-08-21T05:53:20;0.00;;;0.00;;
20061;SDS011;10191;42.710;23.310;2022-08-21T05:55:47;0.10;;;0.10;;
20061;SDS011;10191;42.710;23.310;2022-08-21T05:58:13;0.10;;;0.10;;
20061;SDS011;10191;42.710;23.310;2022-08-21T06:00:41;0.30;;;0.20;;
20061;SDS011;10191;42.710;23.310;2022-08-21T06:03:14;0.10;;;0.10;;
20061;SDS011;10191;42.710;23.310;2022-08-21T06:05:45;0.00;;;0.00;;
20061;SDS011;10191;42.710;23.310;2022-08-21T06:08:11;0.00;;;0.00;;
20061;SDS011;10191;42.710;23.310;2022-08-21T06:10:36;0.00;;;0.00;;
20061;SDS011;10191;42.710;23.310;2022-08-21T06:13:02;0.00;;;0.00;;
20061;SDS011;10191;42.710;23.310;2022-08-21T06:15:28;0.00;;;0.00;;
20061;SDS011;10191;42.710;23.310;2022-08-21T06:17:54;0.00;;;0.00;;
20061;SDS011;10191;42.710;23.310;2022-08-21T06:20:20;0.00;;;0.00;;
20061;SDS011;10191;42.710;23.310;2022-08-21T06:22:45;0.00;;;0.00;;
20061;SDS011;10191;42.710;23.310;2022-08-21T06:25:11;0.00;;;0.00;;
20061;SDS011;10191;42.710;23.310;2022-08-21T06:27:36;0.00;;;0.00;;
20061;SDS011;10191;42.710;23.310;2022-08-21T06:30:03;0.08;;;0.08;;
20061;SDS011;10191;42.710;23.310;2022-08-21T06:32:30;0.03;;;0.03;;
20061;SDS011;10191;42.710;23.310;2022-08-21T06:34:55;0.10;;;0.10;;
20061;SDS011;10191;42.710;23.310;2022-08-21T06:37:21;0.00;;;0.00;;
20061;SDS011;10191;42.710;23.310;2022-08-21T06:39:47;0.00;;;0.00;;
20061;SDS011;10191;42.710;23.310;2022-08-21T06:42:16;0.00;;;0.00;;
20061;SDS011;10191;42.710;23.310;2022-08-21T06:44:42;0.00;;;0.00;;
20061;SDS011;10191;42.710;23.310;2022-08-21T06:47:11;0.10;;;0.10;;
20061;SDS011;10191;42.710;23.310;2022-08-21T06:49:36;0.03;;;0.03;;
20061;SDS011;10191;42.710;23.310;2022-08-21T06:52:02;0.00;;;0.00;;
20061;SDS011;10191;42.710;23.310;2022-08-21T06:54:28;0.00;;;0.00;;
20061;SDS011;10191;42.710;23.310;2022-08-21T06:56:55;0.00;;;0.00;;
20061;SDS011;10191;42.710;23.310;2022-08-21T06:59:21;0.00;;;0.00;;
20061;SDS011;10191;42.710;23.310;2022-08-21T07:01:46;0.00;;;0.00;;
20061;SDS011;10191;42.710;23.310;2022-08-21T07:04:12;0.00;;;0.00;;
20061;SDS011;10191;42.710;23.310;2022-08-21T07:06:37;0.00;;;0.00;;
20061;SDS011;10191;42.710;23.310;2022-08-21T07:09:03;0.10;;;0.10;;
20061;SDS011;10191;42.710;23.310;2022-08-21T07:11:29;0.00;;;0.00;;
20061;SDS011;10191;42.710;23.310;2022-08-21T07:13:55;0.00;;;0.00;;
20061;SDS011;10191;42.710;23.310;2022-08-21T07:16:21;0.10;;;0.10;;
20061;SDS011;10191;42.710;23.310;2022-08-21T07:18:48;0.00;;;0.00;;
20061;SDS011;10191;42.710;23.310;2022-08-21T07:21:14;0.10;;;0.10;;
20061;SDS011;10191;42.710;23.310;2022-08-21T07:23:42;0.13;;;0.13;;
20061;SDS011;10191;42.710;23.310;2022-08-21T07:26:10;0.15;;;0.15;;
20061;SDS011;10191;42.710;23.310;2022-08-21T07:28:36;0.00;;;0.00;;
20061;SDS011;10191;42.710;23.310;2022-08-21T07:31:02;0.00;;;0.00;;
20061;SDS011;10191;42.710;23.310;2022-08-21T07:33:35;0.00;;;0.00;;
20061;SDS011;10191;42.710;23.310;2022-08-21T07:36:01;0.10;;;0.10;;
20061;SDS011;10191;42.710;23.310;2022-08-21T07:38:27;0.10;;;0.10;;
20061;SDS011;10191;42.710;23.310;2022-08-21T07:40:54;0.10;;;0.10;;
20061;SDS011;10191;42.710;23.310;2022-08-21T07:43:24;0.20;;;0.20;;
20061;SDS011;10191;42.710;23.310;2022-08-21T07:45:55;0.10;;;0.10;;
20061;SDS011;10191;42.710;23.310;2022-08-21T07:48:23;0.15;;;0.15;;
20061;SDS011;10191;42.710;23.310;2022-08-21T07:51:17;0.10;;;0.10;;
20061;SDS011;10191;42.710;23.310;2022-08-21T07:53:47;0.17;;;0.13;;
20061;SDS011;10191;42.710;23.310;2022-08-21T07:56:17;0.00;;;0.00;;
20061;SDS011;10191;42.710;23.310;2022-08-21T07:58:46;0.03;;;0.03;;
20061;SDS011;10191;42.710;23.310;2022-08-21T08:01:32;0.00;;;0.00;;
20061;SDS011;10191;42.710;23.310;2022-08-21T08:03:58;0.00;;;0.00;;
20061;SDS011;10191;42.710;23.310;2022-08-21T08:06:26;0.10;;;0.10;;
20061;SDS011;10191;42.710;23.310;2022-08-21T08:08:51;0.10;;;0.10;;
20061;SDS011;10191;42.710;23.310;2022-08-21T08:11:17;0.10;;;0.10;;
20061;SDS011;10191;42.710;23.310;2022-08-21T08:13:49;0.00;;;0.00;;
20061;SDS011;10191;42.710;23.310;2022-08-21T08:16:18;0.10;;;0.10;;
20061;SDS011;10191;42.710;23.310;2022-08-21T08:18:49;0.10;;;0.10;;
20061;SDS011;10191;42.710;23.310;2022-08-21T08:21:29;0.00;;;0.00;;
20061;SDS011;10191;42.710;23.310;2022-08-21T08:23:57;0.00;;;0.00;;
20061;SDS011;10191;42.710;23.310;2022-08-21T08:26:22;0.03;;;0.03;;
20061;SDS011;10191;42.710;23.310;2022-08-21T08:28:48;0.00;;;0.00;;
20061;SDS011;10191;42.710;23.310;2022-08-21T08:31:19;0.10;;;0.10;;
20061;SDS011;10191;42.710;23.310;2022-08-21T08:34:14;0.10;;;0.10;;
20061;SDS011;10191;42.710;23.310;2022-08-21T08:36:39;0.30;;;0.30;;
20061;SDS011;10191;42.710;23.310;2022-08-21T08:39:05;0.10;;;0.10;;
20061;SDS011;10191;42.710;23.310;2022-08-21T08:41:31;0.10;;;0.10;;
20061;SDS011;10191;42.710;23.310;2022-08-21T08:43:58;0.10;;;0.10;;
20061;SDS011;10191;42.710;23.310;2022-08-21T08:46:35;0.20;;;0.20;;
20061;SDS011;10191;42.710;23.310;2022-08-21T08:57:15;0.40;;;0.40;;
20061;SDS011;10191;42.710;23.310;2022-08-21T08:59:52;0.30;;;0.20;;
20061;SDS011;10191;42.710;23.310;2022-08-21T09:02:20;0.52;;;0.30;;
20061;SDS011;10191;42.710;23.310;2022-08-21T09:04:48;0.10;;;0.10;;
20061;SDS011;10191;42.710;23.310;2022-08-21T09:13:43;0.60;;;0.40;;
20061;SDS011;10191;42.710;23.310;2022-08-21T09:22:24;0.10;;;0.10;;
20061;SDS011;10191;42.710;23.310;2022-08-21T09:27:37;0.10;;;0.10;;
20061;SDS011;10191;42.710;23.310;2022-08-21T09:30:03;0.10;;;0.10;;
20061;SDS011;10191;42.710;23.310;2022-08-21T09:32:31;0.00;;;0.00;;
20061;SDS011;10191;42.710;23.310;2022-08-21T09:40:23;0.00;;;0.00;;
20061;SDS011;10191;42.710;23.310;2022-08-21T09:43:05;0.15;;;0.10;;
20061;SDS011;10191;42.710;23.310;2022-08-21T09:45:42;0.20;;;0.20;;
20061;SDS011;10191;42.710;23.310;2022-08-21T09:50:40;0.45;;;0.28;;
20061;SDS011;10191;42.710;23.310;2022-08-21T09:53:14;0.00;;;0.00;;
20061;SDS011;10191;42.710;23.310;2022-08-21T09:55:52;0.20;;;0.20;;
20061;SDS011;10191;42.710;23.310;2022-08-21T09:58:39;0.13;;;0.13;;
20061;SDS011;10191;42.710;23.310;2022-08-21T10:01:11;0.05;;;0.05;;
20061;SDS011;10191;42.710;23.310;2022-08-21T10:03:45;0.40;;;0.20;;
20061;SDS011;10191;42.710;23.310;2022-08-21T10:06:21;0.20;;;0.13;;
20061;SDS011;10191;42.710;23.310;2022-08-21T10:09:03;0.08;;;0.08;;
20061;SDS011;10191;42.710;23.310;2022-08-21T10:11:29;0.00;;;0.00;;
20061;SDS011;10191;42.710;23.310;2022-08-21T10:14:58;0.00;;;0.00;;
20061;SDS011;10191;42.710;23.310;2022-08-21T10:17:24;0.15;;;0.15;;
20061;SDS011;10191;42.710;23.310;2022-08-21T10:20:04;0.55;;;0.50;;
20061;SDS011;10191;42.710;23.310;2022-08-21T10:22:46;0.22;;;0.22;;
20061;SDS011;10191;42.710;23.310;2022-08-21T10:25:23;0.98;;;0.75;;
20061;SDS011;10191;42.710;23.310;2022-08-21T10:38:48;1.40;;;0.63;;
20061;SDS011;10191;42.710;23.310;2022-08-21T10:46:41;0.28;;;0.20;;
20061;SDS011;10191;42.710;23.310;2022-08-21T10:52:54;0.57;;;0.47;;
20061;SDS011;10191;42.710;23.310;2022-08-21T10:55:25;1.38;;;0.40;;
20061;SDS011;10191;42.710;23.310;2022-08-21T10:58:10;0.20;;;0.20;;
20061;SDS011;10191;42.710;23.310;2022-08-21T11:00:43;0.20;;;0.20;;
20061;SDS011;10191;42.710;23.310;2022-08-21T11:03:21;0.03;;;0.03;;
20061;SDS011;10191;42.710;23.310;2022-08-21T11:06:11;0.13;;;0.13;;
20061;SDS011;10191;42.710;23.310;2022-08-21T11:08:49;0.10;;;0.10;;
20061;SDS011;10191;42.710;23.310;2022-08-21T11:11:31;0.22;;;0.20;;
20061;SDS011;10191;42.710;23.310;2022-08-21T11:16:36;0.00;;;0.00;;
20061;SDS011;10191;42.710;23.310;2022-08-21T11:21:53;0.00;;;0.00;;
20061;SDS011;10191;42.710;23.310;2022-08-21T11:27:52;0.40;;;0.20;;
20061;SDS011;10191;42.710;23.310;2022-08-21T11:30:23;0.07;;;0.07;;
20061;SDS011;10191;42.710;23.310;2022-08-21T11:33:02;0.20;;;0.10;;
20061;SDS011;10191;42.710;23.310;2022-08-21T11:51:48;0.28;;;0.20;;
20061;SDS011;10191;42.710;23.310;2022-08-21T11:54:24;0.15;;;0.15;;
20061;SDS011;10191;42.710;23.310;2022-08-21T11:57:46;0.35;;;0.30;;
20061;SDS011;10191;42.710;23.310;2022-08-21T12:00:00;0.17;;;0.17;;
20061;SDS011;10191;42.710;23.310;2022-08-21T12:02:58;0.10;;;0.10;;
20061;SDS011;10191;42.710;23.310;2022-08-21T12:05:39;0.30;;;0.30;;
20061;SDS011;10191;42.710;23.310;2022-08-21T12:08:15;0.38;;;0.30;;
20061;SDS011;10191;42.710;23.310;2022-08-21T12:11:02;0.20;;;0.20;;
20061;SDS011;10191;42.710;23.310;2022-08-21T12:13:40;0.52;;;0.50;;
20061;SDS011;10191;42.710;23.310;2022-08-21T12:16:40;0.50;;;0.28;;
20061;SDS011;10191;42.710;23.310;2022-08-21T12:21:33;1.70;;;0.40;;
20061;SDS011;10191;42.710;23.310;2022-08-21T12:27:29;0.30;;;0.30;;
20061;SDS011;10191;42.710;23.310;2022-08-21T12:30:06;0.30;;;0.30;;
20061;SDS011;10191;42.710;23.310;2022-08-21T12:33:49;0.40;;;0.38;;
20061;SDS011;10191;42.710;23.310;2022-08-21T12:36:06;0.40;;;0.40;;
20061;SDS011;10191;42.710;23.310;2022-08-21T12:41:11;0.10;;;0.10;;
20061;SDS011;10191;42.710;23.310;2022-08-21T12:43:43;0.10;;;0.10;;
20061;SDS011;10191;42.710;23.310;2022-08-21T12:46:18;0.28;;;0.28;;
20061;SDS011;10191;42.710;23.310;2022-08-21T12:48:58;0.20;;;0.20;;
20061;SDS011;10191;42.710;23.310;2022-08-21T12:53:58;0.40;;;0.20;;
20061;SDS011;10191;42.710;23.310;2022-08-21T12:56:26;0.13;;;0.13;;
20061;SDS011;10191;42.710;23.310;2022-08-21T12:59:06;0.22;;;0.20;;
20061;SDS011;10191;42.710;23.310;2022-08-21T13:04:04;0.45;;;0.35;;
20061;SDS011;10191;42.710;23.310;2022-08-21T13:06:41;0.20;;;0.10;;
20061;SDS011;10191;42.710;23.310;2022-08-21T13:09:12;0.10;;;0.10;;
20061;SDS011;10191;42.710;23.310;2022-08-21T13:11:40;0.43;;;0.38;;
20061;SDS011;10191;42.710;23.310;2022-08-21T13:14:13;0.32;;;0.32;;
20061;SDS011;10191;42.710;23.310;2022-08-21T13:16:55;0.15;;;0.15;;
20061;SDS011;10191;42.710;23.310;2022-08-21T13:19:23;0.32;;;0.30;;
20061;SDS011;10191;42.710;23.310;2022-08-21T13:21:49;0.47;;;0.17;;
20061;SDS011;10191;42.710;23.310;2022-08-21T13:26:50;0.10;;;0.10;;
20061;SDS011;10191;42.710;23.310;2022-08-21T13:29:18;0.10;;;0.10;;
20061;SDS011;10191;42.710;23.310;2022-08-21T13:32:03;0.20;;;0.20;;
20061;SDS011;10191;42.710;23.310;2022-08-21T13:37:05;0.20;;;0.20;;
20061;SDS011;10191;42.710;23.310;2022-08-21T13:39:33;0.00;;;0.00;;
20061;SDS011;10191;42.710;23.310;2022-08-21T13:42:01;0.00;;;0.00;;
20061;SDS011;10191;42.710;23.310;2022-08-21T13:44:35;0.20;;;0.20;;
20061;SDS011;10191;42.710;23.310;2022-08-21T13:47:12;0.10;;;0.10;;
20061;SDS011;10191;42.710;23.310;2022-08-21T13:49:40;0.20;;;0.20;;
20061;SDS011;10191;42.710;23.310;2022-08-21T13:55:13;0.30;;;0.30;;
20061;SDS011;10191;42.710;23.310;2022-08-21T13:57:41;0.20;;;0.20;;
20061;SDS011;10191;42.710;23.310;2022-08-21T14:00:14;0.20;;;0.20;;
20061;SDS011;10191;42.710;23.310;2022-08-21T14:03:06;0.22;;;0.22;;
20061;SDS011;10191;42.710;23.310;2022-08-21T14:05:35;0.30;;;0.30;;
20061;SDS011;10191;42.710;23.310;2022-08-21T14:08:13;0.10;;;0.10;;
20061;SDS011;10191;42.710;23.310;2022-08-21T14:10:57;0.10;;;0.10;;
20061;SDS011;10191;42.710;23.310;2022-08-21T14:16:40;0.20;;;0.20;;
20061;SDS011;10191;42.710;23.310;2022-08-21T14:19:24;0.10;;;0.10;;
20061;SDS011;10191;42.710;23.310;2022-08-21T14:22:21;0.17;;;0.17;;
20061;SDS011;10191;42.710;23.310;2022-08-21T14:25:05;0.20;;;0.20;;
20061;SDS011;10191;42.710;23.310;2022-08-21T14:27:39;0.30;;;0.28;;
20061;SDS011;10191;42.710;23.310;2022-08-21T14:30:11;0.90;;;0.22;;
20061;SDS011;10191;42.710;23.310;2022-08-21T14:33:04;0.40;;;0.40;;
20061;SDS011;10191;42.710;23.310;2022-08-21T14:35:34;1.42;;;0.43;;
20061;SDS011;10191;42.710;23.310;2022-08-21T14:38:02;0.20;;;0.20;;
20061;SDS011;10191;42.710;23.310;2022-08-21T14:40:38;0.10;;;0.10;;
20061;SDS011;10191;42.710;23.310;2022-08-21T14:43:04;0.20;;;0.20;;
20061;SDS011;10191;42.710;23.310;2022-08-21T14:45:29;0.10;;;0.10;;
20061;SDS011;10191;42.710;23.310;2022-08-21T14:47:57;0.10;;;0.10;;
20061;SDS011;10191;42.710;23.310;2022-08-21T14:50:23;0.20;;;0.20;;
20061;SDS011;10191;42.710;23.310;2022-08-21T14:52:48;0.10;;;0.10;;
20061;SDS011;10191;42.710;23.310;2022-08-21T14:55:15;0.10;;;0.10;;
20061;SDS011;10191;42.710;23.310;2022-08-21T14:57:44;0.10;;;0.10;;
20061;SDS011;10191;42.710;23.310;2022-08-21T15:00:12;0.20;;;0.20;;
20061;SDS011;10191;42.710;23.310;2022-08-21T15:02:39;0.00;;;0.00;;
20061;SDS011;10191;42.710;23.310;2022-08-21T15:05:04;0.10;;;0.10;;
20061;SDS011;10191;42.710;23.310;2022-08-21T15:07:31;0.10;;;0.10;;
20061;SDS011;10191;42.710;23.310;2022-08-21T15:09:56;0.10;;;0.10;;
20061;SDS011;10191;42.710;23.310;2022-08-21T15:15:29;0.15;;;0.15;;
20061;SDS011;10191;42.710;23.310;2022-08-21T15:17:57;0.28;;;0.20;;
20061;SDS011;10191;42.710;23.310;2022-08-21T15:22:48;0.22;;;0.22;;
20061;SDS011;10191;42.710;23.310;2022-08-21T15:25:13;0.70;;;0.45;;
20061;SDS011;10191;42.710;23.310;2022-08-21T15:27:42;0.33;;;0.30;;
20061;SDS011;10191;42.710;23.310;2022-08-21T15:37:24;0.57;;;0.47;;
20061;SDS011;10191;42.710;23.310;2022-08-21T15:39:50;0.65;;;0.57;;
20061;SDS011;10191;42.710;23.310;2022-08-21T15:42:17;0.73;;;0.50;;
20061;SDS011;10191;42.710;23.310;2022-08-21T15:44:43;0.73;;;0.52;;
20061;SDS011;10191;42.710;23.310;2022-08-21T15:49:37;0.30;;;0.30;;
20061;SDS011;10191;42.710;23.310;2022-08-21T15:52:02;0.30;;;0.30;;
20061;SDS011;10191;42.710;23.310;2022-08-21T15:54:28;0.20;;;0.20;;
20061;SDS011;10191;42.710;23.310;2022-08-21T15:56:54;0.22;;;0.20;;
20061;SDS011;10191;42.710;23.310;2022-08-21T15:59:20;0.10;;;0.10;;
20061;SDS011;10191;42.710;23.310;2022-08-21T16:01:49;0.10;;;0.10;;
20061;SDS011;10191;42.710;23.310;2022-08-21T16:06:48;0.73;;;0.60;;
20061;SDS011;10191;42.710;23.310;2022-08-21T16:09:14;0.57;;;0.40;;
20061;SDS011;10191;42.710;23.310;2022-08-21T16:11:41;0.37;;;0.33;;
20061;SDS011;10191;42.710;23.310;2022-08-21T16:14:11;0.20;;;0.20;;
20061;SDS011;10191;42.710;23.310;2022-08-21T16:16:39;0.20;;;0.20;;
20061;SDS011;10191;42.710;23.310;2022-08-21T16:19:04;0.40;;;0.40;;
20061;SDS011;10191;42.710;23.310;2022-08-21T16:21:31;0.25;;;0.20;;
20061;SDS011;10191;42.710;23.310;2022-08-21T16:23:58;0.40;;;0.28;;
20061;SDS011;10191;42.710;23.310;2022-08-21T16:31:17;0.17;;;0.17;;
20061;SDS011;10191;42.710;23.310;2022-08-21T16:33:44;0.38;;;0.30;;
20061;SDS011;10191;42.710;23.310;2022-08-21T16:38:39;0.15;;;0.10;;
20061;SDS011;10191;42.710;23.310;2022-08-21T16:41:07;2.35;;;0.50;;
20061;SDS011;10191;42.710;23.310;2022-08-21T16:43:34;0.30;;;0.30;;
20061;SDS011;10191;42.710;23.310;2022-08-21T16:45:59;0.65;;;0.65;;
20061;SDS011;10191;42.710;23.310;2022-08-21T16:48:26;0.20;;;0.20;;
20061;SDS011;10191;42.710;23.310;2022-08-21T16:50:53;0.15;;;0.15;;
20061;SDS011;10191;42.710;23.310;2022-08-21T16:53:19;0.30;;;0.30;;
20061;SDS011;10191;42.710;23.310;2022-08-21T16:55:45;0.22;;;0.22;;
20061;SDS011;10191;42.710;23.310;2022-08-21T16:58:33;0.73;;;0.60;;